100LL.CA
Aviation Fuel Pricing for Canadians
Please upgrade your browser - Tested with IE9, FireFox, Chrome, Safari

Fuel Airports Other Help
Prices Economy Info List METAR/TAF Kneeboard Help

Reference Airport: ST. JOHN'S INTL, NL
N 47 37 07  W 052 45 09
Provinces to show:

CYYT ST. JOHN'S INTL, NL
WEATHER
METARCYYT 221600Z 30014G19KT 260V320 15SM FEW032 FEW077 SCT240 22/05 A2994 RMK SC2AC1CI1 CI TR CU ASOCTD SLP141 DENSITY ALT 1400FT
TAFTAF CYYT 221140Z 2212/2312 29010KT P6SM SKC FM222000 28012KT P6SM BKN080 FM230300 27015KT P6SM SCT080 RMK NXT FCST BY 221800Z
OTHER SITES

FlightAware

FltPlan

Google Maps

SkyVector
FUEL
FBO 100LL
member
100LL
public
JETA MOGAS
Irving Aviation (2018-12-05)1.450
Woodward Aviation Services (2017-08-22)1.350
Pal Aviation Services (2019-08-09)3.5101.710
Canada Flight Supplement - entry pending


Please Send Updates!

Desktop Version ]  [ Mobile Version ]  [ Disclaimer ]